Flight Track Log - Related Links

Times and Time Zones

All times are in EDT time to prevent confusion due to time zone crossing. See the SWA709 flight status page for this flight to view local times or setup timezone preferences in your user account.

Time Position Orientation Groundspeed Altitude Reporting Facility
EDT Latitude Longitude Course Direction KTS MPH feet Rate Location/Type
Thu 07:25:46 AM 30.2689 -97.7594 278° West 219 252 6,100  Level Houston Center
Thu 07:26:47 AM 30.2817 -97.8389 281° West 240 276 8,800 2,727 Climbing Houston Center
Thu 07:27:47 AM 30.2997 -97.9506 281° West 299 344 11,600 3,124 Climbing Houston Center
Thu 07:28:48 AM 30.3186 -98.0622 281° West 346 398 15,100 2,951 Climbing Houston Center
Thu 07:29:00 AM 30.4129 -97.8752 276° West  Level FlightAware Approximate
Thu 07:29:49 AM 30.3361 -98.1633 281° West 361 415 17,600  Level Houston Center
Thu 07:30:00 AM 30.4167 -98.0006 278° West  Level FlightAware Approximate
Thu 07:30:50 AM 30.3561 -98.2864 281° West 380 437 20,300  Level Houston Center
Thu 07:31:00 AM 30.4315 -98.1252 278° West  Level FlightAware Approximate
Thu 07:31:51 AM 30.3803 -98.4386 280° West 407 468 23,400  Level Houston Center
Thu 07:32:52 AM 30.4017 -98.5708 281° West 412 474 25,600 1,869 Climbing Houston Center
Thu 07:33:53 AM 30.4233 -98.7072 280° West 425 489 27,200 1,574 Climbing Houston Center
Thu 07:34:54 AM 30.4458 -98.8517 280° West 447 514 28,800 1,672 Climbing Houston Center
Thu 07:35:55 AM 30.4711 -98.9975 281° West 456 525 30,600 2,164 Climbing Houston Center
Thu 07:36:56 AM 30.4947 -99.1400 281° West 447 514 33,200 2,115 Climbing Houston Center
Thu 07:37:57 AM 30.5122 -99.2569 280° West 430 495 34,900 1,377 Climbing Houston Center
Thu 07:38:58 AM 30.5325 -99.3892 280° West 422 486 36,000 1,279 Climbing Houston Center
Thu 07:39:59 AM 30.5589 -99.5514 281° West 428 493 37,500 984 Climbing Houston Center
Thu 07:41:00 AM 30.5789 -99.6864 280° West 428 493 38,000 246 Climbing Houston Center
Thu 07:42:01 AM 30.5997 -99.8217 280° West 430 495 38,000  Level Houston Center
Thu 07:43:02 AM 30.6278 -99.9536 284° West 426 490 38,000  Level Houston Center
Thu 07:44:03 AM 30.6572 -100.0847 285° West 425 489 38,000  Level Houston Center
Thu 07:45:04 AM 30.6833 -100.2125 283° West 413 475 38,000  Level Houston Center
Thu 07:46:06 AM 30.7117 -100.3469 284° West 431 496 38,000  Level Houston Center
Thu 07:47:07 AM 30.7394 -100.4783 284° West 427 491 38,000  Level Houston Center
Thu 07:48:08 AM 30.7664 -100.6094 283° West 424 488 38,000  Level Houston Center
Thu 07:49:09 AM 30.7989 -100.7681 283° West 424 488 38,000  Level Houston Center
Thu 07:50:10 AM 30.8267 -100.8981 284° West 421 484 38,000  Level Houston Center
Thu 07:51:11 AM 30.8525 -101.0303 283° West 424 488 38,000  Level Houston Center
Thu 07:52:12 AM 30.8814 -101.1597 285° West 418 481 38,000  Level Houston Center
Thu 07:53:13 AM 30.9094 -101.2903 284° West 419 482 38,000  Level Houston Center
Thu 07:54:15 AM 30.9347 -101.4311 282° West 423 487 38,000  Level Houston Center
Thu 07:54:45 AM 30.9447 -101.4819 283° West 420 483 38,000  Level Albuquerque Center
Thu 07:55:46 AM 30.9775 -101.6408 284° West 420 483 38,000  Level Albuquerque Center
Thu 07:56:46 AM 31.0042 -101.7725 283° West 419 482 38,000  Level Albuquerque Center
Thu 07:57:46 AM 31.0294 -101.9050 283° West 419 482 38,000  Level Albuquerque Center
Thu 07:58:46 AM 31.0525 -102.0244 283° West 423 487 38,000  Level Albuquerque Center
Thu 07:59:47 AM 31.0781 -102.1519 283° West 411 473 38,000  Level Albuquerque Center
Thu 08:00:47 AM 31.1031 -102.2794 283° West 405 466 38,000  Level Albuquerque Center
Thu 08:01:47 AM 31.1281 -102.4083 283° West 406 467 38,000  Level Albuquerque Center
Thu 08:02:48 AM 31.1522 -102.5400 282° West 411 473 38,000  Level Albuquerque Center
Thu 08:03:48 AM 31.1764 -102.6625 283° West 405 466 38,000  Level Albuquerque Center
Thu 08:04:48 AM 31.2258 -102.7833 296° West 409 471 38,000  Level Albuquerque Center
Thu 08:05:49 AM 31.2864 -102.8969 302° West 410 472 38,000  Level Albuquerque Center
Thu 08:06:49 AM 31.3447 -103.0075 302° West 403 464 38,000  Level Albuquerque Center
Thu 08:07:50 AM 31.4042 -103.1194 302° West 403 464 38,000  Level Albuquerque Center
Thu 08:08:50 AM 31.4625 -103.2317 301° West 403 464 38,000  Level Albuquerque Center
Thu 08:09:50 AM 31.5222 -103.3425 302° West 402 463 38,000  Level Albuquerque Center
Thu 08:10:51 AM 31.5814 -103.4569 301° West 400 460 38,000  Level Albuquerque Center
Thu 08:11:51 AM 31.6389 -103.5664 302° West 396 456 38,000  Level Albuquerque Center
Thu 08:12:52 AM 31.6950 -103.6764 301° West 393 452 38,000  Level Albuquerque Center
Thu 08:13:52 AM 31.7519 -103.7844 302° West 388 447 38,000  Level Albuquerque Center
Thu 08:14:52 AM 31.8064 -103.8908 301° West 384 442 38,000  Level Albuquerque Center
Thu 08:15:53 AM 31.8622 -103.9978 302° West 384 442 38,000  Level Albuquerque Center
Thu 08:16:53 AM 31.9197 -104.1069 302° West 389 448 38,000  Level Albuquerque Center
Thu 08:17:54 AM 31.9758 -104.2156 301° West 390 449 38,000  Level Albuquerque Center
Thu 08:18:54 AM 32.0417 -104.3458 301° West 389 448 38,000  Level Albuquerque Center
Thu 08:19:55 AM 32.0961 -104.4536 301° West 387 445 38,000  Level Albuquerque Center
Thu 08:20:55 AM 32.1531 -104.5647 301° West 393 452 38,000  Level Albuquerque Center
Thu 08:21:56 AM 32.2086 -104.6736 301° West 390 449 38,000  Level Albuquerque Center
Thu 08:22:56 AM 32.2644 -104.7800 302° West 386 444 38,000  Level Albuquerque Center
Thu 08:23:57 AM 32.3197 -104.8908 301° West 390 449 38,000  Level Albuquerque Center
Thu 08:24:57 AM 32.3733 -105.0003 300° West 388 447 38,000  Level Albuquerque Center
Thu 08:25:58 AM 32.4289 -105.1111 301° West 392 451 38,000  Level Albuquerque Center
Thu 08:26:58 AM 32.4839 -105.2222 300° West 394 453 38,000  Level Albuquerque Center
Thu 08:27:59 AM 32.5375 -105.3300 301° West 385 443 38,000  Level Albuquerque Center
Thu 08:28:59 AM 32.5908 -105.4381 300° West 382 440 38,000  Level Albuquerque Center
Thu 08:30:00 AM 32.6444 -105.5467 300° West 382 440 38,000  Level Albuquerque Center
Thu 08:31:00 AM 32.6972 -105.6547 300° West 381 438 38,000  Level Albuquerque Center
Thu 08:32:01 AM 32.7508 -105.7614 301° West 379 436 38,000  Level Albuquerque Center
Thu 08:33:01 AM 32.8036 -105.8703 300° West 381 438 38,000  Level Albuquerque Center
Thu 08:34:02 AM 32.8628 -105.9892 301° West 381 438 38,000  Level Albuquerque Center
Thu 08:35:02 AM 32.9147 -106.0956 300° West 376 433 38,000  Level Albuquerque Center
Thu 08:36:03 AM 32.9678 -106.2039 300° West 379 436 38,000  Level Albuquerque Center
Thu 08:37:03 AM 33.0203 -106.3128 300° West 381 438 38,000  Level Albuquerque Center
Thu 08:38:04 AM 33.0722 -106.4203 300° West 378 435 38,000  Level Albuquerque Center
Thu 08:39:05 AM 33.1247 -106.5281 300° West 378 435 38,000  Level Albuquerque Center
Thu 08:40:05 AM 33.1761 -106.6383 299° West 380 437 38,000  Level Albuquerque Center
Thu 08:41:06 AM 33.2289 -106.7469 300° West 381 438 38,000  Level Albuquerque Center
Thu 08:42:06 AM 33.2806 -106.8550 300° West 379 436 38,000  Level Albuquerque Center
Thu 08:43:07 AM 33.3317 -106.9636 299° West 377 434 38,000  Level Albuquerque Center
Thu 08:44:07 AM 33.3828 -107.0697 300° West 374 430 38,000  Level Albuquerque Center
Thu 08:45:08 AM 33.4325 -107.1772 299° West 371 427 38,000  Level Albuquerque Center
Thu 08:46:09 AM 33.4936 -107.3031 300° West 370 426 38,000  Level Albuquerque Center
Thu 08:47:09 AM 33.5442 -107.4128 299° West 372 428 38,000  Level Albuquerque Center
Thu 08:48:10 AM 33.5944 -107.5192 300° West 373 429 38,000  Level Albuquerque Center
Thu 08:49:10 AM 33.6461 -107.6253 300° West 371 427 38,000  Level Albuquerque Center
Thu 08:50:11 AM 33.6953 -107.7336 299° West 371 427 38,000  Level Albuquerque Center
Thu 08:51:12 AM 33.7447 -107.8411 299° West 370 426 38,000  Level Albuquerque Center
Thu 08:52:12 AM 33.7947 -107.9486 299° West 370 426 38,000  Level Albuquerque Center
Thu 08:53:13 AM 33.8439 -108.0550 299° West 367 422 38,000  Level Albuquerque Center
Thu 08:54:13 AM 33.8992 -108.1731 299° West 369 425 38,000  Level Albuquerque Center
Thu 08:55:14 AM 33.9489 -108.2794 299° West 369 425 38,000  Level Albuquerque Center
Thu 08:56:15 AM 33.9983 -108.3867 299° West 370 426 38,000  Level Albuquerque Center
Thu 08:57:15 AM 34.0481 -108.4964 299° West 373 429 38,000  Level Albuquerque Center
Thu 08:58:16 AM 34.0978 -108.6042 299° West 375 432 38,000  Level Albuquerque Center
Thu 08:59:17 AM 34.1453 -108.7103 298° West 370 426 38,000  Level Albuquerque Center
Thu 09:00:17 AM 34.1936 -108.8181 298° West 368 423 38,000  Level Albuquerque Center
Thu 09:01:18 AM 34.2428 -108.9242 299° West 367 422 38,000  Level Albuquerque Center
Thu 09:02:19 AM 34.2911 -109.0317 299° West 367 422 38,000  Level Albuquerque Center
Thu 09:03:19 AM 34.3481 -109.1581 299° West 367 422 38,000  Level Albuquerque Center
Thu 09:04:20 AM 34.3958 -109.2639 299° West 369 425 38,000  Level Albuquerque Center
Thu 09:05:21 AM 34.4425 -109.3728 297° West 374 430 38,000  Level Albuquerque Center
Thu 09:06:22 AM 34.4983 -109.4958 299° West 374 430 38,000  Level Albuquerque Center
Thu 09:07:22 AM 34.5461 -109.6047 298° West 377 434 38,000  Level Albuquerque Center
Thu 09:08:23 AM 34.5939 -109.7125 298° West 378 435 38,000  Level Albuquerque Center
Thu 09:09:24 AM 34.6483 -109.8383 298° West 377 434 38,000  Level Albuquerque Center
Thu 09:10:25 AM 34.6953 -109.9444 298° West 374 430 38,000  Level Albuquerque Center
Thu 09:11:25 AM 34.7417 -110.0486 298° West 368 423 38,000  Level Albuquerque Center
Thu 09:12:26 AM 34.7978 -110.1792 298° West 382 440 38,000  Level Albuquerque Center
Thu 09:13:27 AM 34.8458 -110.2869 299° West 383 441 38,000  Level Albuquerque Center
Thu 09:14:28 AM 34.8914 -110.3942 297° West 378 435 38,000  Level Albuquerque Center
Thu 09:15:29 AM 34.9428 -110.5178 297° West 369 425 38,000  Level Albuquerque Center
Thu 09:16:30 AM 34.9872 -110.6214 298° West 364 419 38,000  Level Albuquerque Center
Thu 09:17:30 AM 35.0311 -110.7264 297° West 364 419 38,000  Level Albuquerque Center
Thu 09:18:31 AM 35.0753 -110.8583 292° West 382 440 38,000  Level Albuquerque Center
Thu 09:19:32 AM 35.0983 -110.9753 284° West 374 430 38,000 -49 Level Albuquerque Center
Thu 09:20:33 AM 35.1244 -111.0886 286° West 378 435 37,900 -738 Descending Albuquerque Center
Thu 09:21:34 AM 35.1519 -111.2172 285° West 387 445 36,500 -1,377 Descending Albuquerque Center
Thu 09:22:35 AM 35.1786 -111.3439 284° West 387 445 35,100 -1,525 Descending Albuquerque Center
Thu 09:23:36 AM 35.2117 -111.4972 285° West 391 450 33,400 -1,574 Descending Albuquerque Center
Thu 09:24:37 AM 35.2397 -111.6308 284° West 401 461 31,900 -1,426 Descending Albuquerque Center
Thu 09:25:38 AM 35.2686 -111.7700 284° West 408 470 30,500 -934 Descending Albuquerque Center
Thu 09:26:39 AM 35.2972 -111.9064 284° West 413 475 30,000 -246 Descending Albuquerque Center
Thu 09:27:40 AM 35.3258 -112.0442 284° West 418 481 30,000  Level Albuquerque Center
Thu 09:28:41 AM 35.3531 -112.1822 284° West 418 481 30,000  Level Albuquerque Center
Thu 09:29:42 AM 35.3819 -112.3200 284° West 421 484 30,000  Level Albuquerque Center
Thu 09:30:31 AM 35.4042 -112.4303 284° West 420 483 30,000  Level Los Angeles Center
Thu 09:31:32 AM 35.4328 -112.5672 284° West 418 481 30,000  Level Los Angeles Center
Thu 09:32:34 AM 35.4614 -112.7072 284° West 420 483 30,000  Level Los Angeles Center
Thu 09:33:35 AM 35.4894 -112.8503 284° West 429 494 30,000  Level Los Angeles Center
Thu 09:34:36 AM 35.5194 -113.0094 283° West 425 489 30,000  Level Los Angeles Center
Thu 09:35:37 AM 35.5475 -113.1478 284° West 420 483 30,000  Level Los Angeles Center
Thu 09:36:38 AM 35.5747 -113.2883 283° West 426 490 30,000 -246 Level Los Angeles Center
Thu 09:37:39 AM 35.6031 -113.4325 284° West 434 499 29,500 -1,805 Descending Los Angeles Center
Thu 09:38:41 AM 35.6300 -113.5736 283° West 428 493 26,300 -3,024 Descending Los Angeles Center
Thu 09:39:42 AM 35.6489 -113.7119 280° West 414 476 23,300 -3,148 Descending Los Angeles Center
Thu 09:40:43 AM 35.6714 -113.8744 280° West 405 466 19,900 -2,634 Descending Los Angeles Center
Thu 09:41:45 AM 35.6900 -114.0036 280° West 390 449 17,900 -2,146 Descending Los Angeles Center
Thu 09:42:46 AM 35.7078 -114.1319 280° West 383 441 15,500 -2,361 Descending Los Angeles Center
Thu 09:43:47 AM 35.7256 -114.2642 279° West 375 432 13,100 -1,707 Descending Los Angeles Center
Thu 09:44:49 AM 35.7367 -114.3808 277° West 348 400 12,000 -846 Descending Los Angeles Center
Thu 09:45:05 AM 35.7414 -114.4164 279° West 337 388 12,000 -393 Level Los Angeles Center
Thu 09:45:50 AM 35.7469 -114.4858 276° West 314 361 11,600 -885 Descending Los Angeles Center
Thu 09:46:06 AM 35.7514 -114.5192 279° West 310 357 11,100 -1,377 Descending Los Angeles Center
Thu 09:46:51 AM 35.7567 -114.5878 275° West 301 346 10,200 -1,082 Descending Los Angeles Center
Thu 09:47:07 AM 35.7589 -114.6200 275° West 301 346 10,000 -194 Descending Los Angeles Center
Thu 09:47:53 AM 35.7617 -114.6878 273° West 294 338 10,000  Level Los Angeles Center
Thu 09:48:14 AM 35.7567 -114.7375 263° West 294 338 10,000  Level Los Angeles Center
Thu 09:48:54 AM 35.7464 -114.7906 257° West 304 350 10,000  Level Los Angeles Center
Thu 09:49:15 AM 35.7403 -114.8386 261° West 302 348 10,000  Level Los Angeles Center
Thu 09:50:09 AM 35.7244 -114.9339 258° West 303 349 10,000  Level Los Angeles Center
Thu 09:50:57 AM 35.7164 -114.9936 261° West 301 346 10,000  Level Los Angeles Center
Thu 09:51:16 AM 35.7081 -115.0453 259° West 307 353 10,000 -290 Level Los Angeles Center
Thu 09:51:59 AM 35.6978 -115.1167 260° West 303 349 9,700 -787 Descending Los Angeles Center
Thu 09:52:17 AM 35.7058 -115.1439 290° West 296 341 9,200 -689 Descending Los Angeles Center
Thu 09:53:00 AM 35.7264 -115.2075 292° West 290 334 9,000 -686 Descending Los Angeles Center
Thu 09:54:02 AM 35.7794 -115.2500 327° Northwest 249 287 8,000 -683 Descending Los Angeles Center
Thu 09:55:03 AM 35.8325 -115.2914 328° Northwest 234 269 7,600 -585 Descending Los Angeles Center
Thu 09:56:05 AM 35.8842 -115.2800 10° North 213 245 6,800 -871 Descending Los Angeles Center
Thu 09:57:07 AM 35.9319 -115.2508 26° Northeast 199 229 5,800 -857 Descending Los Angeles Center
Thu 09:58:04 AM 35.9786 -115.2269 23° Northeast 175 201 5,100 -976 Descending Los Angeles Center
Thu 09:59:10 AM 36.0239 -115.1989 27° Northeast 175 201 3,800 -1,214 Descending Los Angeles Center
Thu 09:59:28 AM 36.0344 -115.1953 15° North 140 161 3,400 -1,063 Descending Los Angeles Center
Thu 10:00:29 AM 36.0672 -115.1764 25° Northeast 128 147 2,400 -800 Descending Los Angeles Center
Thu 10:01:13 AM 36.0889 -115.1619 28° Northeast 148 170 2,000 -545 Descending Los Angeles Center

Login

Don't have an account? Register now (free) for customized features, flight alerts, and more!